Forside
METAR-TAF:

METAR-TAF

Lufthavne :

Le Touquet, Frankrig

Breddekreds: 50-30-53N, længdekreds: 001-37-39E, højde: 6 m

Aktuelle vejr

Denne rapport blev lavet for 20 minutter siden, kl. 14:00 UTC
Vind 12 kt fra østnordøst, varierende mellem nordnordøst og øst
Temperatur 11°C
Fugtighed 32%
Tryk 1029 hPa
Sigt 10 km eller mere
ingen skyer under 1500m og ingen cumulonimbus

METAR: LFAT 311400Z AUTO 06012KT 020V100 CAVOK 11/M05 Q1029 NOSIG

Tid: 16:20 (14:20 UTC)

Vejrudsigter

Denne rapport blev lavet for 3 timer og 20 minutter siden, kl. 11:00 UTC
Foreløbig gælder fra 31 på 12 UTC til 31 på 21 UTC
Vind 11 kt fra øst
Sigt 10 km eller mere
ingen skyer under 1500m og ingen cumulonimbus

TAF: LFAT 311100Z 3112/3121 08011KT CAVOK

Vejrobservationer og prognoser fra mere end 4000 lufthavne (METAR og TAF).

De gule og røde prikker repræsenterer de meteorologiske stationer.

Flyt musen over at se navnet på stationen.

Så klik over at se vejr observationer og prognoser.

At skifte det kort: Klik på de grønne knapper med et sort kors for at zoome ind; på den grønne knap med en bindestreg for at zoome ud; eller på de grønne pile for tilstødende kort.


METAR-TAF: